Eldorado, Oklahoma
Current Conditions -  °F | °C
As of 7:15 AM on Friday 24 Oct 2014 (Local Time) from KAXS Reporting Station
Haze Haze  
Wind Chill: 58°   Ceiling: Unl
Heat Index: 58°   Visibility: 3mi
Dew Point: 56°   Wind: 6mph
Humidity: 92%   Direction: 120°ESE
Pressure: 30.09"   Gusts: NA
Location:  34.47°N, 99.65°W
Report Text: KAXS 241215Z AUTO 12005KT 3SM BR CLR 15/13 A3009 RMK AO2 T01450132
Loading
Personal Weather Stations






























Interactive Weather Map
Tropical Storm Tracking
New forecast layout! Learn more

10-Day Weather Forecast

Advertisements
Track Severe Weather on mobile